Time;durP1;ratioP1;P1;durP2;ratioP2;P2;SDS_P1;SDS_P2;PMS_P1;PMS_P2;Temp;Humidity;BMP_temperature;BMP_pressure;BME280_temperature;BME280_humidity;BME280_pressure;Samples;Min_cycle;Max_cycle;Signal;HPM_P1;HPM_P2
2023/12/12 00:00:46;;;;;;;;;27.00;25.75;;;;;11.56;94.39;100461.59;5055781;28;48099;-74
2023/12/12 00:03:11;;;;;;;;;38.00;31.50;;;;;11.74;94.32;100500.78;5057987;28;45460;-72
2023/12/12 00:05:37;;;;;;;;;31.75;27.50;;;;;11.74;94.58;100482.44;5057941;28;45443;-73
2023/12/12 00:08:02;;;;;;;;;40.50;33.75;;;;;11.76;95.11;100464.94;5058292;28;45717;-71
2023/12/12 00:10:28;;;;;;;;;36.00;28.00;;;;;11.81;95.90;100486.75;5057202;28;45446;-71
2023/12/12 00:12:53;;;;;;;;;37.50;28.00;;;;;11.61;95.88;100470.31;5053992;28;45597;-69
2023/12/12 00:15:21;;;;;;;;;40.50;32.50;;;;;11.65;95.67;100457.16;5052392;27;45675;-71
2023/12/12 00:17:47;;;;;;;;;34.50;31.25;;;;;11.15;95.36;100377.06;5048216;28;45979;-72
2023/12/12 00:20:13;;;;;;;;;30.75;25.50;;;;;11.83;96.03;100492.88;5055381;28;46581;-72
2023/12/12 00:22:39;;;;;;;;;38.00;29.75;;;;;11.89;95.25;100492.00;5057382;28;45301;-71
2023/12/12 00:25:08;;;;;;;;;38.50;30.25;;;;;11.76;95.77;100457.06;5056006;28;45545;-73
2023/12/12 00:27:33;;;;;;;;;32.50;28.00;;;;;11.94;96.71;100469.22;5057586;28;45443;-68
2023/12/12 00:29:59;;;;;;;;;31.00;26.50;;;;;11.79;96.55;100443.94;5056717;28;46122;-66
2023/12/12 00:32:25;;;;;;;;;34.50;29.50;;;;;11.93;96.28;100482.34;5056507;28;45715;-69
2023/12/12 00:34:51;;;;;;;;;30.50;25.75;;;;;11.71;96.57;100422.13;5057025;28;45619;-74
2023/12/12 00:37:21;;;;;;;;;25.50;20.50;;;;;11.97;96.24;100457.81;5056615;28;45555;-68
2023/12/12 00:39:46;;;;;;;;;30.25;25.00;;;;;12.00;96.77;100452.53;5055616;28;46457;-70
2023/12/12 00:42:15;;;;;;;;;31.50;26.75;;;;;11.55;96.76;100374.13;5056469;28;45533;-71
2023/12/12 00:44:41;;;;;;;;;33.25;26.25;;;;;11.47;97.01;100368.09;5057582;28;45463;-71
2023/12/12 00:47:06;;;;;;;;;32.50;25.25;;;;;12.00;96.91;100424.53;5057310;28;45252;-71
2023/12/12 00:49:35;;;;;;;;;29.50;21.25;;;;;11.81;96.61;100392.28;5056190;28;46108;-71
2023/12/12 00:52:02;;;;;;;;;35.75;29.50;;;;;11.75;96.13;100397.59;5057690;28;45520;-70
2023/12/12 00:54:28;;;;;;;;;32.75;28.00;;;;;12.13;96.34;100448.06;5056659;28;45421;-71
2023/12/12 00:56:54;;;;;;;;;34.50;25.00;;;;;11.87;96.07;100394.91;5056128;28;45348;-72
2023/12/12 00:59:20;;;;;;;;;33.75;28.50;;;;;12.04;95.83;100418.38;5055794;28;46461;-72
2023/12/12 01:01:45;;;;;;;;;27.50;25.25;;;;;12.12;95.90;100422.69;5057674;28;45343;-72
2023/12/12 01:04:11;;;;;;;;;31.75;25.50;;;;;12.15;96.45;100428.78;5057502;28;45338;-72
2023/12/12 01:06:36;;;;;;;;;34.75;28.75;;;;;12.03;96.00;100402.63;5057053;28;45598;-71
2023/12/12 01:09:02;;;;;;;;;31.25;25.00;;;;;12.14;96.63;100427.03;5054959;28;46324;-72
2023/12/12 01:11:31;;;;;;;;;26.00;23.50;;;;;12.08;96.52;100406.09;5056900;28;45451;-71
2023/12/12 01:13:57;;;;;;;;;28.75;24.25;;;;;11.89;96.24;100379.16;5057607;28;45472;-70
2023/12/12 01:16:24;;;;;;;;;33.50;27.25;;;;;11.98;96.33;100404.44;5058012;28;45571;-71
2023/12/12 01:18:59;;;;;;;;;33.25;25.25;;;;;12.11;96.55;100411.31;5056743;28;46315;-73
2023/12/12 01:21:25;;;;;;;;;32.00;27.50;;;;;11.67;96.50;100328.56;5055809;28;45413;-71
2023/12/12 01:23:52;;;;;;;;;35.00;32.25;;;;;11.51;96.61;100303.38;5056487;28;45366;-72
2023/12/12 01:26:19;;;;;;;;;35.00;29.25;;;;;11.84;96.83;100360.78;5056408;28;45667;-71
2023/12/12 01:28:45;;;;;;;;;31.00;24.50;;;;;11.83;97.11;100350.31;5062230;28;46399;-71
2023/12/12 01:31:11;;;;;;;;;30.25;23.50;;;;;11.91;97.02;100368.63;5064962;28;45339;-71
2023/12/12 01:33:38;;;;;;;;;33.75;30.25;;;;;12.03;97.18;100389.50;5077126;27;45472;-71
2023/12/12 01:36:04;;;;;;;;;36.25;31.25;;;;;12.03;96.90;100381.63;5055103;28;45381;-69
2023/12/12 01:38:31;;;;;;;;;32.50;26.25;;;;;11.94;97.35;100364.25;5056891;28;46516;-72
2023/12/12 01:40:57;;;;;;;;;30.25;24.75;;;;;12.17;96.94;100392.91;5055846;28;45850;-71
2023/12/12 01:43:28;;;;;;;;;31.00;28.25;;;;;12.16;97.39;100391.13;5055051;28;45309;-71
2023/12/12 01:46:05;;;;;;;;;33.00;26.25;;;;;12.16;97.41;100392.91;5055041;28;45551;-73
2023/12/12 01:48:32;;;;;;;;;26.75;24.50;;;;;12.19;97.12;100401.59;5061014;28;45389;-73
2023/12/12 01:50:59;;;;;;;;;35.25;30.75;;;;;12.16;97.52;100399.00;5057255;28;45354;-70
2023/12/12 01:53:54;;;;;;;;;35.00;27.25;;;;;12.17;97.08;100392.00;5057222;28;46482;-71
2023/12/12 01:56:24;;;;;;;;;32.75;25.50;;;;;12.12;97.49;100389.41;5055277;28;45484;-72
2023/12/12 01:58:52;;;;;;;;;36.25;28.50;;;;;12.21;97.54;100407.72;5071423;27;45346;-72
2023/12/12 02:01:18;;;;;;;;;35.25;28.50;;;;;12.16;98.01;100406.88;5056023;28;45772;-72
2023/12/12 02:03:44;;;;;;;;;32.75;26.50;;;;;12.01;97.55;100367.69;5055631;28;45503;-71
2023/12/12 02:06:14;;;;;;;;;36.00;28.75;;;;;11.99;97.94;100353.69;5056244;28;45467;-71
2023/12/12 02:08:41;;;;;;;;;32.00;26.00;;;;;12.15;97.90;100380.63;5055306;28;45675;-73
2023/12/12 02:11:06;;;;;;;;;32.00;24.75;;;;;12.14;98.28;100382.41;5060100;28;45379;-71
2023/12/12 02:13:32;;;;;;;;;32.75;25.75;;;;;12.05;98.15;100369.38;5060112;28;45730;-71
2023/12/12 02:15:57;;;;;;;;;25.50;23.00;;;;;12.16;98.44;100375.38;5059411;28;46033;-73
2023/12/12 02:18:23;;;;;;;;;23.50;21.50;;;;;12.20;98.27;100371.00;5059192;28;45461;-72
2023/12/12 02:20:48;;;;;;;;;28.75;22.00;;;;;12.15;98.04;100351.75;5059041;28;45216;-71
2023/12/12 02:23:14;;;;;;;;;25.50;18.75;;;;;12.09;98.56;100340.44;5059732;28;45536;-71
2023/12/12 02:25:40;;;;;;;;;27.75;21.75;;;;;12.17;98.45;100340.38;5060043;28;45752;-72
2023/12/12 02:28:07;;;;;;;;;22.75;14.75;;;;;12.21;98.66;100351.72;5058913;28;45516;-70
2023/12/12 02:30:35;;;;;;;;;28.50;21.50;;;;;12.18;99.08;100349.13;5058863;28;45574;-71
2023/12/12 02:33:01;;;;;;;;;24.00;19.75;;;;;12.20;98.76;100342.09;5059018;28;45495;-71
2023/12/12 02:35:29;;;;;;;;;21.75;19.50;;;;;12.20;99.18;100345.59;5058835;28;45579;-71
2023/12/12 02:37:55;;;;;;;;;28.75;22.75;;;;;12.22;98.70;100341.19;5059259;28;45496;-73
2023/12/12 02:40:20;;;;;;;;;17.00;15.75;;;;;12.25;98.48;100337.66;5060264;28;45343;-72
2023/12/12 02:42:46;;;;;;;;;21.25;19.75;;;;;12.25;98.81;100340.28;5058965;28;45396;-71
2023/12/12 02:45:12;;;;;;;;;23.25;18.25;;;;;12.22;98.53;100333.31;5058152;28;45846;-71
2023/12/12 02:47:44;;;;;;;;;18.25;17.00;;;;;12.04;98.75;100296.75;5057116;28;45625;-71
2023/12/12 02:50:10;;;;;;;;;20.50;18.50;;;;;12.07;99.56;100296.72;5056565;28;45522;-72
2023/12/12 02:52:43;;;;;;;;;20.50;17.50;;;;;12.02;99.76;100286.28;5058285;28;45431;-73
2023/12/12 02:55:54;;;;;;;;;;;;;;;;;;;;;
2023/12/12 02:58:20;;;;;;;;;20.25;18.75;;;;;11.86;99.01;100245.31;5058192;28;73374;-72
2023/12/12 03:00:45;;;;;;;;;24.75;20.00;;;;;12.15;99.24;100268.66;5059235;28;45492;-72
2023/12/12 03:03:11;;;;;;;;;21.00;17.75;;;;;12.20;98.82;100279.97;5058682;28;45414;-70
2023/12/12 03:05:37;;;;;;;;;19.50;16.50;;;;;12.10;98.56;100262.56;5055851;28;45622;-69
2023/12/12 03:08:02;;;;;;;;;23.50;19.00;;;;;12.24;98.25;100272.91;5056212;28;45572;-71
2023/12/12 03:10:28;;;;;;;;;18.50;16.75;;;;;12.24;98.05;100272.91;5057235;28;45996;-71
2023/12/12 03:12:53;;;;;;;;;24.00;17.75;;;;;12.19;98.52;100272.09;5056933;28;45497;-68
2023/12/12 03:15:19;;;;;;;;;17.75;17.75;;;;;12.22;98.73;100280.81;5058359;28;45481;-70
2023/12/12 03:17:44;;;;;;;;;17.50;17.50;;;;;12.16;99.41;100278.25;5057955;28;45690;-70
2023/12/12 03:20:10;;;;;;;;;20.00;15.50;;;;;11.96;99.17;100238.22;5059115;28;45425;-70
2023/12/12 03:22:36;;;;;;;;;20.50;16.50;;;;;12.13;99.85;100274.81;5059926;28;45569;-71
2023/12/12 03:25:05;;;;;;;;;23.00;17.75;;;;;12.06;100.00;100279.25;5058217;28;45621;-69
2023/12/12 03:27:32;;;;;;;;;18.00;16.25;;;;;12.02;99.82;100252.16;5056541;28;47622;-72
2023/12/12 03:29:58;;;;;;;;;19.25;16.25;;;;;12.06;100.00;100253.88;5059240;28;45282;-70
2023/12/12 03:32:23;;;;;;;;;19.25;14.75;;;;;11.91;99.70;100219.03;5057985;28;45330;-71
2023/12/12 03:34:49;;;;;;;;;19.00;15.75;;;;;11.69;100.00;100187.78;5057916;28;45306;-70
2023/12/12 03:37:16;;;;;;;;;23.00;15.75;;;;;11.97;100.00;100239.97;5057638;28;45412;-71
2023/12/12 03:39:41;;;;;;;;;17.50;14.25;;;;;12.01;100.00;100239.94;5057821;28;45539;-71
2023/12/12 03:42:07;;;;;;;;;14.33;12.00;;;;;11.99;99.85;100220.69;5057890;28;45487;-71
2023/12/12 03:44:33;;;;;;;;;16.67;15.33;;;;;11.95;100.00;100210.25;5058432;28;45596;-70
2023/12/12 03:46:59;;;;;;;;;18.00;13.67;;;;;12.00;99.60;100221.56;5058891;28;46031;-72
2023/12/12 03:49:25;;;;;;;;;19.67;14.00;;;;;11.99;99.99;100225.09;5058205;28;45437;-71
2023/12/12 03:51:51;;;;;;;;;14.33;11.00;;;;;11.96;99.68;100206.72;5058664;28;45413;-72
2023/12/12 03:54:17;;;;;;;;;18.75;14.75;;;;;11.91;99.99;100193.66;5045510;28;45272;-72
2023/12/12 03:56:42;;;;;;;;;15.00;11.33;;;;;12.02;100.00;100210.16;5058616;28;45557;-71
2023/12/12 03:59:08;;;;;;;;;15.00;12.67;;;;;11.96;100.00;100186.63;5057741;28;45400;-72
2023/12/12 04:01:34;;;;;;;;;13.00;10.00;;;;;11.86;100.00;100170.09;5058247;28;45477;-72
2023/12/12 04:03:59;;;;;;;;;12.00;9.67;;;;;11.87;100.00;100166.59;5057688;28;45488;-72
2023/12/12 04:06:29;;;;;;;;;12.00;8.67;;;;;11.93;100.00;100185.78;5056932;28;45991;-70
2023/12/12 04:08:58;;;;;;;;;11.67;9.67;;;;;12.04;99.87;100195.25;5057648;28;45516;-72
2023/12/12 04:11:24;;;;;;;;;17.50;12.00;;;;;11.99;100.00;100190.97;5058992;28;45421;-72
2023/12/12 04:13:51;;;;;;;;;9.50;6.25;;;;;11.91;100.00;100163.94;5058383;28;45517;-71
2023/12/12 04:16:16;;;;;;;;;15.75;11.25;;;;;12.12;100.00;100189.91;5058208;28;46618;-71
2023/12/12 04:18:42;;;;;;;;;12.00;10.50;;;;;12.13;100.00;100190.81;5059067;28;45437;-71
2023/12/12 04:21:12;;;;;;;;;14.33;11.67;;;;;12.04;100.00;100178.66;5056904;28;45508;-71
2023/12/12 04:23:42;;;;;;;;;12.00;10.67;;;;;12.14;100.00;100193.38;5056983;27;45437;-71
2023/12/12 04:26:09;;;;;;;;;17.00;13.33;;;;;12.19;100.00;100178.44;5057475;28;46068;-72
2023/12/12 04:28:47;;;;;;;;;15.00;11.33;;;;;11.88;99.97;100117.63;5057375;27;45425;-71
2023/12/12 04:31:20;;;;;;;;;10.33;10.33;;;;;12.14;100.00;100150.50;5057308;28;45342;-71
2023/12/12 04:33:53;;;;;;;;;10.67;10.00;;;;;12.25;100.00;100164.38;5054592;27;45492;-72
2023/12/12 04:36:20;;;;;;;;;9.67;7.67;;;;;12.25;100.00;100173.09;5057199;28;46646;-71
2023/12/12 04:38:45;;;;;;;;;9.33;8.33;;;;;12.24;100.00;100170.50;5056857;28;45332;-72
2023/12/12 04:41:11;;;;;;;;;10.67;8.67;;;;;11.78;100.00;100084.50;5056735;28;45703;-71
2023/12/12 04:43:37;;;;;;;;;7.00;6.50;;;;;12.22;100.00;100135.50;5057452;28;45442;-70
2023/12/12 04:46:03;;;;;;;;;7.33;7.33;;;;;12.39;100.00;100151.06;5057052;28;45453;-71
2023/12/12 04:48:35;;;;;;;;;8.67;8.67;;;;;12.24;100.00;100124.13;5056491;28;45448;-71
2023/12/12 04:51:02;;;;;;;;;10.00;9.33;;;;;12.09;100.00;100093.69;5057248;28;45338;-70
2023/12/12 04:53:27;;;;;;;;;11.67;9.67;;;;;12.29;99.98;100126.66;5058586;28;45384;-70
2023/12/12 04:55:53;;;;;;;;;14.33;9.67;;;;;12.47;100.00;100152.66;5045076;28;45304;-71
2023/12/12 04:58:18;;;;;;;;;7.00;7.00;;;;;12.45;99.21;100149.19;5054464;28;45464;-71
2023/12/12 05:00:44;;;;;;;;;6.00;6.00;;;;;12.47;98.97;100141.28;5056370;28;45442;-70
2023/12/12 05:03:13;;;;;;;;;8.00;6.67;;;;;12.57;98.69;100148.13;5057912;28;45454;-72
2023/12/12 05:05:44;;;;;;;;;9.67;9.67;;;;;12.48;99.20;100132.50;5058318;28;45527;-70
2023/12/12 05:08:10;;;;;;;;;9.00;8.00;;;;;12.49;99.60;100145.63;5056972;28;45532;-70
2023/12/12 05:10:36;;;;;;;;;17.67;11.00;;;;;12.47;100.00;100141.28;5055355;28;45481;-72
2023/12/12 05:13:01;;;;;;;;;12.33;10.33;;;;;12.44;100.00;100129.06;5056661;28;45435;-74
2023/12/12 05:15:28;;;;;;;;;13.67;11.33;;;;;12.42;100.00;100124.72;5056120;28;45456;-68
2023/12/12 05:17:54;;;;;;;;;17.00;10.67;;;;;12.44;99.84;100129.06;5056438;28;45918;-70
2023/12/12 05:20:20;;;;;;;;;15.00;10.00;;;;;12.43;100.00;100137.84;5056311;28;45540;-69
2023/12/12 05:22:49;;;;;;;;;10.00;5.67;;;;;12.38;100.00;100128.28;5055025;28;45381;-72
2023/12/12 05:25:15;;;;;;;;;12.67;9.33;;;;;12.48;100.00;100146.53;5056344;28;46552;-71
2023/12/12 05:27:41;;;;;;;;;14.67;9.00;;;;;12.20;99.55;100082.19;5056135;28;45535;-71
2023/12/12 05:30:07;;;;;;;;;13.67;11.33;;;;;11.48;99.96;99962.50;5056005;28;45368;-72
2023/12/12 05:32:33;;;;;;;;;10.67;10.67;;;;;12.42;99.42;100095.84;5057723;28;45545;-69
2023/12/12 05:34:58;;;;;;;;;17.00;15.33;;;;;12.43;100.00;100105.44;5055163;28;47034;-70
2023/12/12 05:37:24;;;;;;;;;13.33;12.33;;;;;12.09;100.00;100056.94;5054957;28;45552;-71
2023/12/12 05:39:53;;;;;;;;;17.33;13.67;;;;;11.87;100.00;100026.66;5056298;28;45496;-71
2023/12/12 05:42:19;;;;;;;;;20.75;15.75;;;;;12.30;100.00;100103.00;5055437;28;46086;-72
2023/12/12 05:44:47;;;;;;;;;14.67;11.00;;;;;12.28;100.00;100102.16;5059683;28;46689;-72
2023/12/12 05:47:13;;;;;;;;;24.00;16.00;;;;;12.28;100.00;100096.06;5061051;28;45588;-70
2023/12/12 05:49:39;;;;;;;;;15.00;14.33;;;;;12.33;100.00;100106.50;5059311;28;45341;-70
2023/12/12 05:52:05;;;;;;;;;16.33;11.33;;;;;12.36;100.00;100109.06;5060567;28;45450;-68
2023/12/12 05:54:30;;;;;;;;;19.33;15.00;;;;;12.38;100.00;100113.38;5060002;28;45847;-68
2023/12/12 05:56:56;;;;;;;;;12.33;11.33;;;;;12.32;100.00;100095.13;5059583;28;45782;-71
2023/12/12 05:59:22;;;;;;;;;10.33;8.67;;;;;12.26;100.00;100076.81;5059828;28;46196;-73
2023/12/12 06:01:48;;;;;;;;;13.00;11.00;;;;;11.56;100.00;99958.03;5060116;28;45223;-70
2023/12/12 06:04:14;;;;;;;;;13.00;13.00;;;;;12.52;100.00;100100.91;5060918;28;46140;-71
2023/12/12 06:06:43;;;;;;;;;13.50;12.75;;;;;12.49;100.00;100098.34;5060971;28;45447;-69
2023/12/12 06:09:17;;;;;;;;;17.67;12.67;;;;;12.43;100.00;100101.09;5060631;28;45576;-70
2023/12/12 06:11:46;;;;;;;;;13.00;11.50;;;;;12.37;100.00;100085.41;5060777;28;45443;-72
2023/12/12 06:14:12;;;;;;;;;17.33;11.33;;;;;12.37;100.00;100076.66;5059214;28;45445;-73
2023/12/12 06:16:38;;;;;;;;;18.00;13.00;;;;;11.73;100.00;99970.88;5059117;28;45494;-72
2023/12/12 06:19:04;;;;;;;;;16.00;12.67;;;;;12.44;100.00;100094.06;5060620;28;45474;-70
2023/12/12 06:21:32;;;;;;;;;17.33;14.33;;;;;12.40;100.00;100077.47;5061070;28;45516;-71
2023/12/12 06:24:02;;;;;;;;;20.25;17.75;;;;;12.48;100.00;100088.75;5048208;28;46246;-72
2023/12/12 06:26:28;;;;;;;;;19.67;15.67;;;;;12.49;100.00;100082.59;5055544;28;45524;-72
2023/12/12 06:28:54;;;;;;;;;17.00;14.50;;;;;12.38;100.00;100066.13;5059177;28;45487;-71
2023/12/12 06:31:23;;;;;;;;;15.67;13.67;;;;;12.49;100.00;100084.34;5059411;28;45419;-71
2023/12/12 06:33:50;;;;;;;;;15.50;14.50;;;;;12.40;100.00;100060.84;5060540;28;45510;-70
2023/12/12 06:36:16;;;;;;;;;20.50;15.00;;;;;12.32;100.00;100049.63;5060033;28;45299;-71
2023/12/12 06:38:44;;;;;;;;;16.33;14.67;;;;;12.28;100.00;100065.41;5058940;28;45340;-71
2023/12/12 06:41:10;;;;;;;;;17.50;16.25;;;;;12.43;100.00;100082.69;5059004;28;45423;-70
2023/12/12 06:43:36;;;;;;;;;17.00;13.50;;;;;12.38;100.00;100074.00;5058550;28;45504;-69
2023/12/12 06:46:02;;;;;;;;;16.33;14.00;;;;;12.43;100.00;100082.69;5058682;28;45587;-70
2023/12/12 06:48:28;;;;;;;;;13.67;9.33;;;;;12.48;100.00;100093.09;5059228;28;45627;-70
2023/12/12 06:50:54;;;;;;;;;14.25;13.25;;;;;12.52;100.00;100093.03;5058639;28;45419;-70
2023/12/12 06:53:23;;;;;;;;;12.33;11.33;;;;;12.36;100.00;100057.41;5058649;28;45445;-68
2023/12/12 06:55:49;;;;;;;;;9.75;7.50;;;;;12.42;100.00;100075.69;5058456;27;45393;-72
2023/12/12 06:58:16;;;;;;;;;14.25;13.25;;;;;12.43;100.00;100074.81;5060495;28;45461;-72
2023/12/12 07:00:43;;;;;;;;;16.50;13.50;;;;;12.37;100.00;100063.53;5060445;28;45465;-70
2023/12/12 07:03:12;;;;;;;;;12.00;7.67;;;;;12.55;100.00;100094.72;5057934;28;45426;-73
2023/12/12 07:05:38;;;;;;;;;17.67;13.00;;;;;12.41;100.00;100065.19;5058536;28;45437;-71
2023/12/12 07:08:05;;;;;;;;;21.33;12.00;;;;;12.36;100.00;100070.53;5057851;27;45408;-71
2023/12/12 07:10:31;;;;;;;;;14.33;13.00;;;;;12.31;100.00;100059.22;5058353;28;45449;-72
2023/12/12 07:12:59;;;;;;;;;13.00;10.00;;;;;12.49;100.00;100089.59;5059004;28;46297;-69
2023/12/12 07:15:37;;;;;;;;;12.50;9.00;;;;;12.27;100.00;100058.44;5057964;28;45445;-69
2023/12/12 07:18:11;;;;;;;;;15.75;15.25;;;;;12.28;100.00;100059.28;5058333;28;45532;-72
2023/12/12 07:20:44;;;;;;;;;15.00;11.33;;;;;12.43;100.00;100076.56;5050399;28;45280;-71
2023/12/12 07:23:10;;;;;;;;;14.00;12.00;;;;;12.61;100.00;100094.66;5057875;28;46212;-73
2023/12/12 07:25:41;;;;;;;;;15.67;11.33;;;;;12.63;100.00;100089.38;5044351;28;45481;-73
2023/12/12 07:28:07;;;;;;;;;14.33;12.33;;;;;12.73;100.00;100104.09;5057451;28;45520;-71
2023/12/12 07:30:35;;;;;;;;;13.67;9.33;;;;;12.77;100.00;100103.16;5057883;28;45433;-71
2023/12/12 07:33:01;;;;;;;;;14.33;11.00;;;;;12.75;100.00;100096.19;5057752;28;45594;-72
2023/12/12 07:35:28;;;;;;;;;12.00;7.00;;;;;12.29;100.00;99995.38;5057964;28;45499;-73
2023/12/12 07:37:53;;;;;;;;;10.00;10.00;;;;;12.86;100.00;100095.09;5057928;28;45413;-70
2023/12/12 07:40:19;;;;;;;;;10.00;9.33;;;;;12.64;99.81;100055.19;5057239;28;45557;-71
2023/12/12 07:42:45;;;;;;;;;10.00;7.33;;;;;12.76;99.14;100072.50;5057765;28;45377;-71
2023/12/12 07:45:11;;;;;;;;;14.00;6.67;;;;;12.93;99.14;100088.84;5043707;28;45488;-70
2023/12/12 07:47:37;;;;;;;;;13.67;10.33;;;;;12.95;98.51;100088.81;5058010;28;45569;-71
2023/12/12 07:50:05;;;;;;;;;14.00;9.67;;;;;12.78;98.42;100060.19;5056862;28;45811;-71
2023/12/12 07:52:32;;;;;;;;;10.67;10.00;;;;;12.90;98.52;100074.88;5057426;28;45366;-71
2023/12/12 07:54:58;;;;;;;;;9.67;5.67;;;;;12.85;98.27;100061.81;5056428;28;45403;-70
2023/12/12 07:57:23;;;;;;;;;10.67;8.33;;;;;12.94;98.03;100080.06;5058493;28;45445;-72
2023/12/12 07:59:49;;;;;;;;;7.33;7.33;;;;;13.05;97.70;100098.28;5058207;28;45745;-71
2023/12/12 08:02:14;;;;;;;;;8.33;8.33;;;;;13.04;97.38;100086.00;5057291;28;45808;-71
2023/12/12 08:04:40;;;;;;;;;12.67;10.33;;;;;13.04;97.49;100082.50;5057306;28;45520;-70
2023/12/12 08:07:06;;;;;;;;;9.67;7.33;;;;;13.04;96.80;100086.00;5056761;28;45473;-71
2023/12/12 08:09:31;;;;;;;;;9.33;5.00;;;;;13.09;96.66;100093.81;5058084;28;45366;-73
2023/12/12 08:12:01;;;;;;;;;9.33;5.00;;;;;13.13;96.34;100098.97;5055700;28;46775;-72
2023/12/12 08:14:35;;;;;;;;;3.00;3.00;;;;;13.13;96.38;100091.09;5072548;28;45445;-73
2023/12/12 08:17:02;;;;;;;;;4.00;3.00;;;;;12.91;95.58;100035.44;5047536;28;45410;-73
2023/12/12 08:19:31;;;;;;;;;4.33;4.33;;;;;12.90;95.42;100027.56;5057744;28;45477;-70
2023/12/12 08:21:57;;;;;;;;;5.67;5.00;;;;;13.24;95.51;100074.25;5057147;28;46321;-71
2023/12/12 08:24:26;;;;;;;;;4.67;4.67;;;;;12.85;95.17;100009.25;5057848;28;45508;-71
2023/12/12 08:26:51;;;;;;;;;5.00;4.00;;;;;12.93;94.93;100001.22;5059865;28;45474;-70
2023/12/12 08:29:17;;;;;;;;;3.00;3.00;;;;;13.27;94.47;100066.31;5066271;28;45337;-70
2023/12/12 08:31:43;;;;;;;;;4.67;2.67;;;;;13.38;94.50;100077.50;5068799;28;45355;-70
2023/12/12 08:34:10;;;;;;;;;2.67;2.67;;;;;13.42;93.59;100073.91;5062194;28;45346;-70
2023/12/12 08:36:35;;;;;;;;;3.67;3.00;;;;;13.49;93.58;100086.03;5058925;28;45332;-71
2023/12/12 08:39:01;;;;;;;;;5.67;4.00;;;;;13.45;92.91;100057.19;5058831;28;45315;-71
2023/12/12 08:41:30;;;;;;;;;4.67;2.00;;;;;13.63;92.07;100079.66;5057319;28;45547;-71
2023/12/12 08:44:00;;;;;;;;;7.33;5.00;;;;;13.71;91.58;100075.06;5058370;28;45505;-70
2023/12/12 08:46:28;;;;;;;;;4.67;4.67;;;;;13.85;91.00;100088.78;5057111;28;45310;-72
2023/12/12 08:48:55;;;;;;;;;6.67;3.00;;;;;13.92;90.25;100077.22;5057449;28;45462;-69
2023/12/12 08:51:21;;;;;;;;;3.00;3.00;;;;;13.93;89.91;100076.34;5057029;28;45558;-72
2023/12/12 08:53:48;;;;;;;;;3.00;2.67;;;;;14.04;89.58;100093.66;5056861;28;46709;-71
2023/12/12 08:56:17;;;;;;;;;6.00;4.33;;;;;13.99;89.32;100081.47;5056855;28;45487;-73
2023/12/12 08:58:47;;;;;;;;;3.67;3.67;;;;;14.06;88.81;100081.34;5056433;28;45567;-73
2023/12/12 09:01:31;;;;;;;;;2.33;2.33;;;;;14.18;88.61;100095.06;5054158;28;48081;-72
2023/12/12 09:04:13;;;;;;;;;2.33;2.33;;;;;14.23;88.24;100102.88;5054139;28;45379;-73
2023/12/12 09:06:40;;;;;;;;;4.33;4.33;;;;;13.92;88.02;100044.78;5055010;28;45434;-71
2023/12/12 09:09:06;;;;;;;;;2.33;2.33;;;;;13.73;87.29;99995.19;5058432;28;45547;-72
2023/12/12 09:11:35;;;;;;;;;4.33;2.33;;;;;14.06;86.79;100052.38;5055918;28;47137;-73
2023/12/12 09:14:00;;;;;;;;;2.67;2.33;;;;;13.42;86.98;99942.41;5056244;28;45948;-72
2023/12/12 09:16:32;;;;;;;;;2.00;2.00;;;;;14.37;86.96;100097.28;5054391;28;45460;-70
2023/12/12 09:18:58;;;;;;;;;3.33;2.67;;;;;13.93;86.54;100020.22;5056956;28;45539;-69
2023/12/12 09:21:25;;;;;;;;;2.33;2.00;;;;;14.26;86.74;100092.28;5055503;28;46724;-74
2023/12/12 09:23:51;;;;;;;;;2.00;1.33;;;;;14.17;86.63;100093.34;5055571;28;45478;-73
2023/12/12 09:26:18;;;;;;;;;2.33;2.00;;;;;14.13;87.33;100096.09;5056997;28;45398;-72
2023/12/12 09:28:44;;;;;;;;;2.00;2.00;;;;;13.89;87.22;100058.88;5058019;28;45509;-74
2023/12/12 09:31:11;;;;;;;;;2.00;2.00;;;;;14.03;87.33;100091.94;5056389;28;45907;-74
2023/12/12 09:33:43;;;;;;;;;2.00;2.00;;;;;13.85;87.71;100066.88;5056662;28;45603;-75
2023/12/12 09:36:10;;;;;;;;;1.67;1.00;;;;;13.92;87.98;100085.13;5056452;27;45516;-73
2023/12/12 09:38:36;;;;;;;;;2.00;1.67;;;;;13.92;88.07;100095.66;5057955;28;45497;-73
2023/12/12 09:41:01;;;;;;;;;8.33;2.33;;;;;13.93;88.05;100093.91;5057913;28;45398;-75
2023/12/12 09:43:28;;;;;;;;;3.00;2.33;;;;;13.89;88.89;100089.63;5057648;28;45387;-73
2023/12/12 09:45:58;;;;;;;;;2.00;2.00;;;;;13.86;89.00;100084.44;5056659;28;45563;-73
2023/12/12 09:48:23;;;;;;;;;4.67;2.00;;;;;13.59;88.84;100034.09;5057227;28;45439;-73
2023/12/12 09:50:54;;;;;;;;;1.33;1.33;;;;;13.55;89.51;100021.94;5057176;28;46498;-73
2023/12/12 09:53:21;;;;;;;;;2.00;1.00;;;;;14.10;89.19;100085.63;5057607;28;45808;-71
2023/12/12 09:56:07;;;;;;;;;2.00;2.00;;;;;14.16;87.98;100091.59;5058604;28;45816;-72
2023/12/12 09:58:34;;;;;;;;;1.00;1.00;;;;;14.04;87.90;100049.75;5056384;28;45386;-71
2023/12/12 10:01:10;;;;;;;;;1.33;0.00;;;;;14.12;88.00;100075.94;5054741;28;46916;-71
2023/12/12 10:03:43;;;;;;;;;1.00;1.00;;;;;14.03;87.96;100073.50;5050608;28;45517;-74
2023/12/12 10:06:11;;;;;;;;;1.00;1.00;;;;;13.64;87.95;100016.44;5055792;28;45469;-73
2023/12/12 10:08:38;;;;;;;;;3.00;2.00;;;;;13.75;88.60;100034.63;5057427;28;45626;-72
2023/12/12 10:11:10;;;;;;;;;2.00;2.00;;;;;13.75;87.97;100022.34;5057660;28;45501;-72
2023/12/12 10:13:54;;;;;;;;;1.00;1.00;;;;;14.11;87.60;100068.91;5055948;28;45726;-72
2023/12/12 10:16:20;;;;;;;;;3.33;2.33;;;;;13.25;86.64;99916.44;5055084;28;45563;-72
2023/12/12 10:18:46;;;;;;;;;2.33;2.00;;;;;14.30;85.89;100043.88;5056011;28;45527;-71
2023/12/12 10:21:16;;;;;;;;;2.00;0.67;;;;;14.91;83.76;100051.16;5055786;28;46282;-73
2023/12/12 10:23:51;;;;;;;;;2.00;2.00;;;;;15.30;80.71;100041.28;5055390;28;45782;-71
2023/12/12 10:26:31;;;;;;;;;1.00;1.00;;;;;15.60;78.06;100047.44;5055261;28;45832;-72
2023/12/12 10:29:01;;;;;;;;;1.00;1.00;;;;;15.60;78.33;100050.09;5055334;28;45606;-72
2023/12/12 10:31:31;;;;;;;;;1.00;1.00;;;;;15.73;77.37;100052.38;5059897;28;45583;-73
2023/12/12 10:33:57;;;;;;;;;1.00;1.00;;;;;15.24;76.47;99965.81;5059760;28;45406;-73
2023/12/12 10:36:27;;;;;;;;;1.33;0.00;;;;;15.26;75.53;99953.47;5059955;28;45910;-71
2023/12/12 10:38:53;;;;;;;;;1.33;0.33;;;;;15.57;75.59;99980.69;5057285;28;45477;-71
2023/12/12 10:41:20;;;;;;;;;1.33;1.00;;;;;16.03;74.58;100030.31;5058664;28;45555;-73
2023/12/12 10:43:47;;;;;;;;;1.00;1.00;;;;;15.95;74.24;100048.19;5058987;28;45358;-71
2023/12/12 10:46:15;;;;;;;;;1.00;1.00;;;;;15.78;75.03;100047.81;5059536;28;45607;-73
2023/12/12 10:49:02;;;;;;;;;2.33;1.33;;;;;15.58;75.51;100043.97;5060308;28;45409;-74
2023/12/12 10:51:28;;;;;;;;;2.33;2.00;;;;;15.28;75.94;100003.53;5057552;28;45726;-74
2023/12/12 10:53:55;;;;;;;;;1.00;1.00;;;;;15.27;75.67;100039.59;5057752;28;45401;-73
2023/12/12 10:56:21;;;;;;;;;1.33;1.33;;;;;14.96;76.24;100005.31;5058378;28;45623;-73
2023/12/12 10:58:51;;;;;;;;;2.00;1.67;;;;;15.04;76.98;100042.00;5059724;28;45409;-72
2023/12/12 11:01:21;;;;;;;;;3.67;2.67;;;;;14.69;77.58;99987.59;5060095;28;45528;-73
2023/12/12 11:03:53;;;;;;;;;2.00;1.00;;;;;14.60;77.48;99979.03;5055331;28;45362;-74
2023/12/12 11:06:20;;;;;;;;;4.00;1.00;;;;;14.80;77.62;100033.84;5054344;28;45527;-75
2023/12/12 11:08:46;;;;;;;;;1.00;1.00;;;;;14.51;77.69;99984.50;5058541;28;45291;-74
2023/12/12 11:11:15;;;;;;;;;2.00;0.00;;;;;14.63;78.12;100017.63;5058498;28;46414;-74
2023/12/12 11:13:43;;;;;;;;;2.67;1.00;;;;;14.63;78.27;100030.78;5057590;28;45420;-72
2023/12/12 11:16:15;;;;;;;;;2.33;1.00;;;;;14.35;78.72;99983.19;5057947;28;45516;-72